Time;durP1;ratioP1;P1;durP2;ratioP2;P2;SDS_P1;SDS_P2;PMS_P1;PMS_P2;Temp;Humidity;BMP_temperature;BMP_pressure;BME280_temperature;BME280_humidity;BME280_pressure;Samples;Min_cycle;Max_cycle;Signal;HPM_P1;HPM_P2
2021/11/10 00:03:26;;;;;;;18.05;16.38;;;;;;;2.60;85.33;101209.78;10477885;28;20045;-81
2021/11/10 00:08:28;;;;;;;17.95;15.35;;;;;;;2.59;85.78;101207.19;10479640;28;20044;-79
2021/11/10 00:13:29;;;;;;;18.17;16.30;;;;;;;2.72;84.85;101202.25;10481373;28;20049;-79
2021/11/10 00:18:31;;;;;;;16.98;15.20;;;;;;;2.47;84.33;101206.09;10488654;28;20128;-80
2021/11/10 00:23:33;;;;;;;22.92;16.23;;;;;;;2.35;85.14;101205.88;10476892;28;20079;-81
2021/11/10 00:28:34;;;;;;;18.52;15.82;;;;;;;2.35;85.67;101213.66;10475516;28;20045;-81
2021/11/10 00:33:36;;;;;;;18.08;16.50;;;;;;;2.25;85.97;101201.31;10477415;28;20148;-82
2021/11/10 00:38:38;;;;;;;18.88;16.38;;;;;;;2.27;86.10;101192.72;10491477;28;20048;-81
2021/11/10 00:43:41;;;;;;;21.02;16.77;;;;;;;2.23;86.19;101184.84;10497392;28;20109;-80
2021/11/10 00:48:43;;;;;;;16.98;15.45;;;;;;;1.97;86.61;101181.69;10487056;28;20045;-80
2021/11/10 00:53:44;;;;;;;18.50;16.63;;;;;;;1.94;87.39;101173.84;10462982;28;20048;-80
2021/11/10 00:58:46;;;;;;;23.05;15.15;;;;;;;2.20;85.80;101169.22;10478553;28;20063;-79
2021/11/10 01:03:48;;;;;;;16.60;15.02;;;;;;;2.24;85.33;101166.72;10462769;28;20049;-82
2021/11/10 01:08:52;;;;;;;14.45;13.05;;;;;;;2.23;84.92;101154.59;10485917;28;20043;-82
2021/11/10 01:13:54;;;;;;;16.98;15.30;;;;;;;1.93;85.96;101152.22;10480586;28;20041;-82
2021/11/10 01:18:56;;;;;;;15.50;14.00;;;;;;;1.88;86.61;101145.22;10479042;28;20060;-81
2021/11/10 01:24:04;;;;;;;14.73;13.43;;;;;;;1.64;86.80;101143.84;10460511;28;20135;-82
2021/11/10 01:29:05;;;;;;;16.42;14.02;;;;;;;1.93;86.52;101135.81;10483197;28;20434;-81
2021/11/10 01:34:07;;;;;;;15.57;14.18;;;;;;;1.76;86.77;101135.44;10485569;28;20049;-80
2021/11/10 01:39:12;;;;;;;16.00;13.90;;;;;;;1.87;85.35;101140.88;10479288;28;20060;-81
2021/11/10 01:44:25;;;;;;;16.10;14.52;;;;;;;1.70;86.58;101138.78;10495893;28;20120;-78
2021/11/10 01:49:28;;;;;;;16.27;14.43;;;;;;;1.76;86.73;101132.84;10483205;28;20048;-80
2021/11/10 01:54:34;;;;;;;14.95;13.55;;;;;;;1.51;87.02;101123.69;10459322;28;20110;-81
2021/11/10 02:00:00;;;;;;;14.50;13.13;;;;;;;1.49;86.61;101121.03;10460253;28;20045;-81
2021/11/10 02:05:13;;;;;;;17.65;15.00;;;;;;;1.67;86.11;101120.56;10467975;28;20051;-81
2021/11/10 02:10:19;;;;;;;14.63;13.25;;;;;;;1.60;86.33;101110.06;10484457;28;20041;-80
2021/11/10 02:15:22;;;;;;;16.35;14.82;;;;;;;1.49;86.67;101115.84;10486610;28;20049;-82
2021/11/10 02:20:30;;;;;;;15.35;13.85;;;;;;;1.27;87.37;101101.53;10488945;28;20055;-81
2021/11/10 02:25:33;;;;;;;16.10;14.40;;;;;;;1.12;87.89;101115.84;10487569;28;20052;-80
2021/11/10 02:30:35;;;;;;;20.92;14.20;;;;;;;1.38;86.40;101112.16;10492663;28;20049;-80
2021/11/10 02:35:36;;;;;;;15.95;14.45;;;;;;;1.22;87.41;101099.69;10492948;28;20508;-80
2021/11/10 02:40:38;;;;;;;15.63;14.00;;;;;;;1.15;87.52;101088.31;10490084;28;20066;-80
2021/11/10 02:45:40;;;;;;;16.50;14.88;;;;;;;1.04;87.33;101081.13;10487758;28;20037;-80
2021/11/10 02:50:42;;;;;;;15.43;13.85;;;;;;;0.93;87.53;101068.81;10485649;28;20499;-82
2021/11/10 02:55:44;;;;;;;15.63;14.02;;;;;;;0.99;87.82;101060.31;10494220;28;20160;-80
2021/11/10 03:00:45;;;;;;;15.93;14.50;;;;;;;1.19;86.01;101053.00;10486172;28;20429;-80
2021/11/10 03:05:48;;;;;;;15.85;14.27;;;;;;;1.04;86.90;101055.25;10485095;28;20117;-81
2021/11/10 03:10:53;;;;;;;17.92;14.65;;;;;;;1.15;86.89;101048.56;10484449;28;20112;-80
2021/11/10 03:16:00;;;;;;;14.70;12.95;;;;;;;0.93;86.44;101045.53;10486677;28;20067;-80
2021/11/10 03:21:02;;;;;;;17.20;15.38;;;;;;;0.81;87.11;101042.63;10469180;28;20048;-81
2021/11/10 03:26:05;;;;;;;17.40;15.65;;;;;;;0.69;87.69;101048.38;10484187;28;20041;-81
2021/11/10 03:31:07;;;;;;;18.30;16.42;;;;;;;0.85;88.12;101052.22;10486437;28;20045;-81
2021/11/10 03:36:14;;;;;;;19.38;17.15;;;;;;;0.56;88.65;101054.09;10488115;28;20048;-80
2021/11/10 03:41:17;;;;;;;18.60;16.67;;;;;;;0.72;88.48;101055.34;10486386;28;20069;-82
2021/11/10 03:46:24;;;;;;;19.00;16.70;;;;;;;0.82;87.89;101065.09;10473306;28;20108;-81
2021/11/10 03:51:27;;;;;;;18.40;16.60;;;;;;;0.91;87.75;101051.50;10502170;28;20073;-78
2021/11/10 03:56:29;;;;;;;17.83;15.93;;;;;;;0.85;88.09;101062.59;10506142;28;20025;-81
2021/11/10 04:01:31;;;;;;;19.00;17.00;;;;;;;0.92;88.57;101067.03;10505748;28;20049;-80
2021/11/10 04:06:37;;;;;;;18.33;16.58;;;;;;;0.82;88.67;101057.31;10502013;28;20035;-82
2021/11/10 04:11:41;;;;;;;16.95;15.45;;;;;;;0.86;88.91;101053.97;10499831;28;20029;-82
2021/11/10 04:16:46;;;;;;;18.50;16.52;;;;;;;0.72;89.33;101050.19;10465816;28;20036;-82
2021/11/10 04:21:48;;;;;;;17.63;15.95;;;;;;;0.83;89.66;101051.31;10479976;28;20049;-80
2021/11/10 04:26:49;;;;;;;18.45;16.65;;;;;;;0.93;89.69;101045.53;10480365;28;20040;-80
2021/11/10 04:31:57;;;;;;;;;;;;;;;1.03;89.58;101046.59;10489600;28;20033;-80
2021/11/10 04:37:01;;;;;;;17.30;15.32;;;;;;;0.93;88.99;101045.53;10491154;28;19932;-80
2021/11/10 04:42:08;;;;;;;17.77;16.17;;;;;;;0.96;89.73;101039.53;10505159;28;20041;-81
2021/11/10 04:47:11;;;;;;;19.38;17.58;;;;;;;1.09;89.89;101033.78;10487287;28;20041;-81
2021/11/10 04:52:14;;;;;;;18.50;16.63;;;;;;;1.09;89.33;101035.50;10483985;28;20049;-80
2021/11/10 04:57:16;;;;;;;17.42;15.68;;;;;;;1.06;88.94;101025.94;10481978;28;20045;-80
2021/11/10 05:02:25;;;;;;;18.15;16.42;;;;;;;1.08;88.91;101026.00;10483037;28;20526;-80
2021/11/10 05:07:29;;;;;;;18.17;16.52;;;;;;;1.00;88.98;101031.88;10479662;28;20076;-81
2021/11/10 05:12:31;;;;;;;19.67;17.02;;;;;;;0.89;89.67;101033.34;10481335;28;20041;-81
2021/11/10 05:17:33;;;;;;;18.92;16.92;;;;;;;0.82;89.60;101035.75;10467855;28;20112;-81
2021/11/10 05:22:36;;;;;;;19.77;16.90;;;;;;;1.01;89.42;101031.00;10465892;28;20049;-80
2021/11/10 05:27:38;;;;;;;19.38;17.23;;;;;;;0.97;89.74;101018.88;10484042;28;20418;-80
2021/11/10 05:32:41;;;;;;;22.88;17.13;;;;;;;0.83;89.49;101022.81;10484512;28;20522;-82
2021/11/10 05:37:43;;;;;;;18.70;16.95;;;;;;;0.67;89.92;101019.03;10480331;28;20452;-83
2021/11/10 05:42:45;;;;;;;19.70;17.60;;;;;;;0.61;90.22;101021.44;10477533;28;20106;-83
2021/11/10 05:47:46;;;;;;;19.50;17.55;;;;;;;0.86;89.77;101020.31;10455923;28;20045;-83
2021/11/10 05:52:48;;;;;;;22.08;19.10;;;;;;;1.04;89.34;101032.81;10472896;28;20049;-82
2021/11/10 05:57:50;;;;;;;30.08;20.45;;;;;;;1.00;89.93;101028.41;10473189;28;20045;-83
2021/11/10 06:02:53;;;;;;;26.88;20.40;;;;;;;1.00;88.81;101026.69;10471378;28;20407;-84
2021/11/10 06:07:56;;;;;;;25.70;20.70;;;;;;;0.89;90.13;101043.69;10470844;28;20384;-83
2021/11/10 06:12:58;;;;;;;26.23;21.02;;;;;;;0.87;90.52;101035.00;10475309;28;20060;-82
2021/11/10 06:18:01;;;;;;;25.27;21.85;;;;;;;0.88;90.22;101038.47;10485774;28;20041;-82
2021/11/10 06:23:03;;;;;;;32.35;25.77;;;;;;;0.92;90.73;101038.56;10507793;28;20049;-81
2021/11/10 06:28:05;;;;;;;34.97;24.00;;;;;;;0.81;90.94;101041.75;10502319;28;20041;-83
2021/11/10 06:33:07;;;;;;;29.30;23.33;;;;;;;0.95;90.32;101043.81;10487948;28;20060;-82
2021/11/10 06:38:09;;;;;;;26.20;23.48;;;;;;;0.81;90.30;101050.41;10476475;28;20048;-82
2021/11/10 06:43:10;;;;;;;37.40;25.33;;;;;;;1.23;91.06;101052.22;10475484;28;20467;-81
2021/11/10 06:48:12;;;;;;;30.67;26.02;;;;;;;1.44;90.36;101057.88;10479629;28;20052;-82
2021/11/10 06:53:14;;;;;;;35.10;25.15;;;;;;;1.73;89.93;101058.50;10473705;28;20048;-84
2021/11/10 06:58:15;;;;;;;28.65;24.52;;;;;;;1.53;90.70;101077.94;10470283;28;20041;-82
2021/11/10 07:03:17;;;;;;;27.40;24.63;;;;;;;1.56;91.59;101077.13;10468448;28;20115;-82
2021/11/10 07:08:19;;;;;;;29.42;25.83;;;;;;;1.53;92.33;101075.34;10470300;28;20045;-83
2021/11/10 07:13:21;;;;;;;29.05;25.60;;;;;;;1.60;92.20;101069.47;10453839;28;20491;-82
2021/11/10 07:18:23;;;;;;;35.80;27.23;;;;;;;1.90;92.33;101065.72;10480795;28;20049;-80
2021/11/10 07:23:24;;;;;;;29.33;24.98;;;;;;;2.15;91.00;101060.19;10479587;28;20045;-81
2021/11/10 07:28:26;;;;;;;36.38;26.02;;;;;;;2.34;91.34;101058.78;10478374;28;20075;-82
2021/11/10 07:33:28;;;;;;;32.90;29.35;;;;;;;2.50;90.47;101059.94;10450191;28;20122;-83
2021/11/10 07:38:30;;;;;;;32.28;26.58;;;;;;;2.76;89.86;101058.66;10489872;28;20052;-81
2021/11/10 07:43:32;;;;;;;26.50;24.17;;;;;;;2.95;89.11;101045.97;10497863;28;20135;-83
2021/11/10 07:48:34;;;;;;;34.30;25.65;;;;;;;3.22;88.87;101046.38;10486228;28;20051;-82
2021/11/10 07:53:36;;;;;;;29.17;25.92;;;;;;;3.39;88.05;101053.53;10467782;28;20045;-81
2021/11/10 07:58:39;;;;;;;33.58;26.52;;;;;;;3.73;87.12;101063.53;10465940;28;20048;-83
2021/11/10 08:03:40;;;;;;;28.20;25.48;;;;;;;4.29;83.95;101052.00;10464578;28;20063;-82
2021/11/10 08:08:42;;;;;;;29.73;26.13;;;;;;;4.13;84.81;101037.97;10471066;28;20044;-82
2021/11/10 08:13:44;;;;;;;28.60;25.85;;;;;;;4.33;84.01;101039.91;10468620;28;20040;-81
2021/11/10 08:18:45;;;;;;;27.67;24.65;;;;;;;4.65;82.27;101032.38;10450825;28;20071;-83
2021/11/10 08:23:47;;;;;;;26.15;23.90;;;;;;;4.71;81.97;101038.50;10468507;28;20478;-83
2021/11/10 08:28:48;;;;;;;24.65;22.65;;;;;;;4.97;80.41;101030.91;10450986;28;20037;-81
2021/11/10 08:33:50;;;;;;;25.95;23.50;;;;;;;5.13;79.88;101033.59;10463495;28;20053;-83
2021/11/10 08:38:53;;;;;;;26.27;23.52;;;;;;;5.14;80.11;101045.78;10481040;28;20063;-82
2021/11/10 08:43:56;;;;;;;25.27;23.35;;;;;;;5.12;81.54;101042.28;10462878;28;20049;-82
2021/11/10 08:48:57;;;;;;;27.33;23.92;;;;;;;5.17;81.87;101032.75;10467553;28;20072;-82
2021/11/10 08:54:05;;;;;;;27.08;24.38;;;;;;;5.51;80.44;101037.28;10479223;28;20049;-83
2021/11/10 08:59:23;;;;;;;26.75;22.85;;;;;;;6.09;77.49;101017.53;10473063;28;20036;-82
2021/11/10 09:04:24;;;;;;;23.38;21.42;;;;;;;6.21;77.54;101026.25;10472420;28;20057;-83
2021/11/10 09:09:26;;;;;;;21.15;19.15;;;;;;;6.60;75.37;101028.91;10469492;28;20048;-82
2021/11/10 09:14:28;;;;;;;22.65;20.70;;;;;;;6.61;76.85;101015.88;10479202;28;20061;-83
2021/11/10 09:19:29;;;;;;;17.95;16.55;;;;;;;7.05;72.64;101021.06;10489655;28;20044;-80
2021/11/10 09:24:32;;;;;;;19.27;17.83;;;;;;;7.31;70.99;101022.75;10472362;28;20049;-82
2021/11/10 09:29:34;;;;;;;19.40;18.00;;;;;;;7.39;71.12;101012.25;10465217;28;20457;-82
2021/11/10 09:34:36;;;;;;;19.08;17.42;;;;;;;7.58;70.22;101013.94;10487246;28;20127;-81
2021/11/10 09:39:38;;;;;;;18.15;16.73;;;;;;;7.33;72.27;101003.53;10490125;28;20049;-82
2021/11/10 09:44:41;;;;;;;19.83;17.85;;;;;;;7.34;72.51;100996.56;10461502;28;20087;-82
2021/11/10 09:49:43;;;;;;;19.77;18.35;;;;;;;7.72;70.26;101006.03;10484296;28;20126;-81
2021/11/10 09:54:46;;;;;;;18.75;17.15;;;;;;;7.55;71.18;101006.09;10469574;28;20056;-81
2021/11/10 09:59:49;;;;;;;17.63;16.38;;;;;;;7.88;69.02;101005.09;10482911;28;20072;-81
2021/11/10 10:05:14;;;;;;;19.27;16.73;;;;;;;7.79;69.72;100990.28;10482178;28;20041;-81
2021/11/10 10:10:16;;;;;;;18.50;16.90;;;;;;;7.65;69.93;100994.69;10481754;28;20124;-82
2021/11/10 10:15:18;;;;;;;17.25;16.05;;;;;;;7.99;68.96;100984.06;10447385;28;20041;-83
2021/11/10 10:20:30;;;;;;;16.05;14.85;;;;;;;8.45;66.05;100987.25;10446715;28;20045;-80
2021/11/10 10:25:39;;;;;;;16.27;14.95;;;;;;;8.45;66.91;100986.38;10471711;28;20048;-82
2021/11/10 10:30:49;;;;;;;15.35;14.15;;;;;;;8.51;65.42;100992.47;10472562;28;20041;-83
2021/11/10 10:36:07;;;;;;;15.32;14.05;;;;;;;8.85;65.10;100981.66;10475152;28;20041;-83
2021/11/10 10:41:10;;;;;;;14.82;13.70;;;;;;;9.44;61.58;100976.69;10470703;28;20075;-82
2021/11/10 10:46:13;;;;;;;15.32;14.18;;;;;;;9.85;60.17;100979.63;10468658;28;20497;-82
2021/11/10 10:51:18;;;;;;;20.88;19.17;;;;;;;10.43;60.03;100974.44;10470269;28;20052;-83
2021/11/10 10:56:28;;;;;;;14.45;13.32;;;;;;;10.30;60.94;100977.25;10479645;28;20049;-84
2021/11/10 11:01:33;;;;;;;15.02;13.82;;;;;;;10.67;58.17;100987.19;10472000;28;20411;-83
2021/11/10 11:06:42;;;;;;;14.50;13.40;;;;;;;10.65;57.94;100983.69;10474379;28;20102;-84
2021/11/10 11:12:27;;;;;;;14.25;13.10;;;;;;;10.03;60.48;100978.50;10471289;28;20029;-81
2021/11/10 11:17:23;;;;;;;15.60;14.20;;;;;;;9.77;60.58;100980.63;10483530;28;20108;-83
2021/11/10 11:22:30;;;;;;;14.25;13.15;;;;;;;9.56;61.11;100972.16;10468047;28;20419;-81
2021/11/10 11:27:32;;;;;;;14.90;13.63;;;;;;;9.35;62.48;100969.78;10468419;28;20045;-84
2021/11/10 11:32:49;;;;;;;14.95;13.48;;;;;;;9.35;63.23;100962.78;10469606;28;20100;-80
2021/11/10 11:37:53;;;;;;;14.38;13.18;;;;;;;9.43;61.94;100964.44;10475528;28;20052;-80
2021/11/10 11:42:57;;;;;;;15.27;14.10;;;;;;;9.29;62.57;100959.34;10476324;28;20075;-79
2021/11/10 11:48:00;;;;;;;13.57;12.32;;;;;;;9.49;62.72;100953.88;10482178;28;20502;-79
2021/11/10 11:53:02;;;;;;;14.07;13.07;;;;;;;9.50;62.23;100961.72;10485178;28;20118;-80
2021/11/10 11:58:12;;;;;;;13.88;12.88;;;;;;;9.35;62.37;100954.91;10485163;28;20049;-79
2021/11/10 12:03:22;;;;;;;14.25;12.88;;;;;;;9.16;63.08;100942.00;10480223;28;20097;-80
2021/11/10 12:09:05;;;;;;;14.00;12.90;;;;;;;9.06;64.10;100933.38;10479729;28;20051;-80
2021/11/10 12:14:22;;;;;;;14.32;13.00;;;;;;;9.44;61.36;100926.81;10480765;28;20058;-81
2021/11/10 12:20:05;;;;;;;12.75;11.45;;;;;;;9.22;60.54;100927.09;10480583;28;20055;-81
2021/11/10 12:25:21;;;;;;;12.40;11.48;;;;;;;9.33;62.73;100926.94;10481213;28;20052;-80
2021/11/10 12:30:25;;;;;;;10.10;9.30;;;;;;;9.60;59.88;100926.56;10495106;28;20074;-80
2021/11/10 12:35:33;;;;;;;15.10;13.82;;;;;;;9.34;61.49;100907.69;10501435;28;20057;-76
2021/11/10 12:40:46;;;;;;;14.95;13.85;;;;;;;9.33;62.60;100908.56;10504148;28;20045;-80
2021/11/10 12:45:55;;;;;;;16.58;15.38;;;;;;;9.14;63.12;100907.06;10502561;28;20097;-80
2021/11/10 12:51:27;;;;;;;15.85;14.75;;;;;;;9.17;62.19;100899.19;10476998;28;20075;-79
2021/11/10 12:56:47;;;;;;;15.52;14.38;;;;;;;8.92;63.81;100899.44;10473298;28;20491;-79
2021/11/10 13:01:50;;;;;;;16.80;15.40;;;;;;;9.05;63.18;100901.03;10476621;28;20056;-79
2021/11/10 13:06:56;;;;;;;18.80;17.40;;;;;;;8.69;64.16;100906.69;10476968;28;20388;-79
2021/11/10 13:11:59;;;;;;;20.03;18.33;;;;;;;8.34;64.91;100900.00;10458719;28;20049;-79
2021/11/10 13:17:12;;;;;;;20.40;18.60;;;;;;;8.54;64.36;100887.63;10472845;28;20083;-80
2021/11/10 13:22:27;;;;;;;21.10;19.17;;;;;;;8.35;65.28;100888.63;10471467;28;20402;-79
2021/11/10 13:27:33;;;;;;;20.70;18.73;;;;;;;8.35;64.89;100893.88;10470971;28;20041;-79
2021/11/10 13:32:45;;;;;;;19.83;17.85;;;;;;;8.21;65.00;100895.75;10474853;28;20132;-79
2021/11/10 13:37:53;;;;;;;19.75;18.05;;;;;;;8.21;64.93;100895.75;10471968;28;20045;-78
2021/11/10 13:42:56;;;;;;;20.33;18.73;;;;;;;8.24;65.24;100880.88;10470315;28;20106;-81
2021/11/10 13:47:58;;;;;;;21.30;19.50;;;;;;;7.98;66.23;100885.47;10468658;28;20047;-79
2021/11/10 13:53:07;;;;;;;20.42;18.50;;;;;;;7.99;66.18;100880.22;10453104;28;20060;-79
2021/11/10 13:58:13;;;;;;;21.20;19.33;;;;;;;8.06;65.81;100875.81;10478068;28;20045;-79
2021/11/10 14:03:21;;;;;;;21.45;19.58;;;;;;;8.05;65.76;100884.50;10477685;28;20045;-79
2021/11/10 14:08:24;;;;;;;21.65;19.98;;;;;;;7.89;66.44;100898.63;10477723;28;20135;-80
2021/11/10 14:13:26;;;;;;;21.48;19.77;;;;;;;7.56;67.23;100892.69;10477624;28;20060;-79
2021/11/10 14:18:29;;;;;;;20.75;19.15;;;;;;;7.79;66.08;100897.78;10474779;28;20079;-77
2021/11/10 14:23:32;;;;;;;20.13;18.52;;;;;;;7.77;66.55;100883.84;10486596;28;20068;-78
2021/11/10 14:28:43;;;;;;;22.42;20.35;;;;;;;7.79;66.36;100879.47;10493919;28;20115;-80
2021/11/10 14:33:49;;;;;;;21.10;19.38;;;;;;;7.70;66.66;100879.53;10496160;28;20071;-79
2021/11/10 14:38:53;;;;;;;23.77;21.87;;;;;;;7.63;67.18;100888.31;10505178;28;20111;-79
2021/11/10 14:43:56;;;;;;;20.63;18.92;;;;;;;7.40;68.33;100878.84;10484386;28;20055;-80
2021/11/10 14:49:10;;;;;;;22.00;20.15;;;;;;;7.20;69.09;100872.84;10487665;28;20100;-79
2021/11/10 14:54:15;;;;;;;23.65;21.73;;;;;;;7.19;69.34;100876.34;10481979;28;20075;-80
2021/11/10 14:59:24;;;;;;;22.88;21.17;;;;;;;6.95;69.95;100862.50;10479093;28;20032;-80
2021/11/10 15:04:28;;;;;;;23.10;21.08;;;;;;;6.85;70.56;100870.38;10482303;28;20122;-80
2021/11/10 15:09:30;;;;;;;22.73;20.90;;;;;;;6.98;69.80;100870.31;10478528;28;20041;-81
2021/11/10 15:14:35;;;;;;;23.50;21.55;;;;;;;6.85;70.33;100870.38;10492313;28;20120;-79
2021/11/10 15:19:42;;;;;;;26.65;24.08;;;;;;;6.95;69.82;100882.50;10500036;28;20054;-79
2021/11/10 15:24:44;;;;;;;23.80;21.73;;;;;;;7.07;69.42;100872.88;10500765;28;20075;-79
2021/11/10 15:29:50;;;;;;;24.05;22.30;;;;;;;6.86;69.91;100870.34;10498739;28;20045;-78
2021/11/10 15:34:51;;;;;;;25.08;22.58;;;;;;;6.80;69.92;100871.25;10491579;28;20049;-79
2021/11/10 15:39:53;;;;;;;23.70;21.38;;;;;;;6.60;70.94;100885.22;10495334;28;20044;-78
2021/11/10 15:44:55;;;;;;;25.90;23.52;;;;;;;6.56;71.10;100894.84;10486738;28;20075;-79
2021/11/10 15:50:04;;;;;;;23.75;21.75;;;;;;;6.44;71.53;100898.31;10498145;28;20037;-80
2021/11/10 15:55:10;;;;;;;24.08;22.02;;;;;;;6.30;72.37;100898.34;10505063;28;20040;-80
2021/11/10 16:00:17;;;;;;;25.80;23.45;;;;;;;6.28;72.59;100900.06;10511404;28;20032;-79
2021/11/10 16:05:39;;;;;;;25.25;23.02;;;;;;;6.25;72.42;100920.97;10501253;23;20045;-76
2021/11/10 16:10:43;;;;;;;27.67;25.02;;;;;;;6.14;73.12;100912.25;10472518;28;20045;-77
2021/11/10 16:15:48;;;;;;;31.88;25.38;;;;;;;6.18;73.03;100921.81;10469133;28;20045;-76
2021/11/10 16:20:55;;;;;;;26.45;23.85;;;;;;;5.95;73.91;100920.94;10471584;28;20049;-78
2021/11/10 16:26:04;;;;;;;28.58;25.95;;;;;;;5.97;73.87;100924.41;10474651;28;20167;-77
2021/11/10 16:36:19;;;;;;;26.27;24.15;;;;;;;5.65;75.06;100919.09;10470285;28;20384;-76
2021/11/10 16:41:21;;;;;;;28.15;25.65;;;;;;;5.52;76.23;100918.19;10467170;28;20048;-77
2021/11/10 16:46:25;;;;;;;25.63;23.65;;;;;;;5.23;76.56;100913.78;10470747;28;20376;-77
2021/11/10 16:51:29;;;;;;;29.50;26.42;;;;;;;4.99;77.78;100909.31;10469913;28;20041;-77
2021/11/10 16:56:32;;;;;;;28.52;25.90;;;;;;;4.96;78.14;100916.25;10469195;28;20056;-76
2021/11/10 17:01:41;;;;;;;36.58;29.38;;;;;;;5.20;77.85;100915.50;10468309;28;20037;-77
2021/11/10 17:06:49;;;;;;;29.75;27.08;;;;;;;4.87;78.54;100909.25;10471526;28;20045;-77
2021/11/10 17:11:56;;;;;;;32.80;29.53;;;;;;;4.64;79.18;100914.31;10454442;28;20036;-77
2021/11/10 17:16:59;;;;;;;32.03;28.77;;;;;;;4.48;79.69;100902.94;10468138;28;20068;-77
2021/11/10 17:22:03;;;;;;;35.40;31.25;;;;;;;4.40;80.30;100908.94;10449684;28;20044;-78
2021/11/10 17:27:06;;;;;;;34.83;30.17;;;;;;;4.55;80.54;100902.09;10468891;28;20052;-77
2021/11/10 17:32:10;;;;;;;33.72;28.92;;;;;;;4.52;80.42;100914.25;10472315;28;20045;-78
2021/11/10 17:37:17;;;;;;;44.33;32.58;;;;;;;4.36;80.51;100922.78;10478407;28;20057;-74
2021/11/10 17:42:19;;;;;;;35.67;31.48;;;;;;;4.13;81.37;100920.00;10467097;28;20446;-75
2021/11/10 17:47:21;;;;;;;34.42;30.63;;;;;;;4.09;81.40;100918.25;10466476;28;20107;-75
2021/11/10 17:52:22;;;;;;;37.58;30.63;;;;;;;4.00;81.86;100919.03;10465186;28;20628;-74
2021/11/10 17:57:25;;;;;;;35.00;31.45;;;;;;;3.88;82.14;100921.50;10464169;28;20091;-75
2021/11/10 18:02:27;;;;;;;35.72;30.42;;;;;;;3.76;82.84;100912.75;10467526;28;20052;-75
2021/11/10 18:07:28;;;;;;;37.45;30.67;;;;;;;3.79;82.72;100920.56;10467248;28;20044;-74
2021/11/10 18:12:30;;;;;;;33.60;30.05;;;;;;;3.76;82.67;100914.44;10464717;28;20045;-75
2021/11/10 18:17:32;;;;;;;41.85;32.80;;;;;;;3.64;83.18;100922.16;10464703;28;20423;-76
2021/11/10 18:22:35;;;;;;;39.83;32.03;;;;;;;3.53;83.40;100903.81;10465022;28;20536;-75
2021/11/10 18:27:37;;;;;;;36.88;31.75;;;;;;;3.52;83.31;100910.75;10465386;28;20052;-75
2021/11/10 18:32:41;;;;;;;40.63;33.47;;;;;;;3.53;83.09;100911.59;10467240;28;20059;-76
2021/11/10 18:37:43;;;;;;;35.42;31.50;;;;;;;3.40;83.77;100902.81;10465391;28;20045;-75
2021/11/10 18:42:44;;;;;;;39.38;30.55;;;;;;;3.24;84.27;100908.69;10466750;28;20045;-75
2021/11/10 18:47:46;;;;;;;41.13;32.15;;;;;;;3.33;84.25;100900.13;10469406;28;20059;-76
2021/11/10 18:52:54;;;;;;;40.75;31.23;;;;;;;3.22;83.91;100895.66;10467336;28;20403;-75
2021/11/10 18:57:56;;;;;;;34.20;30.27;;;;;;;3.16;84.36;100900.81;10465431;28;20041;-76
2021/11/10 19:03:08;;;;;;;40.28;30.67;;;;;;;3.02;84.66;100912.75;10465663;28;20049;-76
2021/11/10 19:08:16;;;;;;;34.15;29.70;;;;;;;3.15;84.59;100913.78;10466669;28;20048;-75
2021/11/10 19:18:39;;;;;;;37.65;30.63;;;;;;;3.23;84.10;100900.03;10466996;28;20045;-76
2021/11/10 19:23:43;;;;;;;34.10;30.25;;;;;;;3.38;83.19;100914.94;10468773;28;20579;-77
2021/11/10 19:28:44;;;;;;;34.50;29.05;;;;;;;3.49;82.25;100918.50;10467529;28;20414;-76
2021/11/10 19:33:46;;;;;;;37.55;29.75;;;;;;;3.31;82.87;100909.63;10467744;28;20060;-76
2021/11/10 19:38:48;;;;;;;36.97;29.35;;;;;;;2.99;83.72;100915.31;10467865;28;20041;-76
2021/11/10 19:43:52;;;;;;;34.28;30.55;;;;;;;2.66;85.03;100918.31;10466543;28;20051;-77
2021/11/10 19:48:56;;;;;;;43.22;29.85;;;;;;;2.79;85.26;100909.84;10468640;28;20403;-77
2021/11/10 19:54:04;;;;;;;38.65;29.58;;;;;;;3.01;83.80;100910.97;10452799;28;20045;-76
2021/11/10 19:59:09;;;;;;;36.08;30.30;;;;;;;2.71;85.05;100908.88;10447462;28;20044;-75
2021/11/10 20:04:12;;;;;;;35.88;29.98;;;;;;;2.55;85.99;100917.28;10464320;28;20673;-76
2021/11/10 20:09:14;;;;;;;46.20;32.88;;;;;;;2.63;85.48;100929.53;10465915;28;20075;-77
2021/11/10 20:14:16;;;;;;;40.45;31.80;;;;;;;2.44;85.27;100925.78;10449289;28;20068;-76
2021/11/10 20:19:18;;;;;;;45.40;32.00;;;;;;;2.50;85.98;100938.84;10463470;28;20093;-75
2021/11/10 20:24:23;;;;;;;47.15;33.20;;;;;;;2.67;85.67;100938.22;10464418;28;20048;-75
2021/11/10 20:29:25;;;;;;;46.20;32.97;;;;;;;2.76;84.99;100926.25;10466004;28;20041;-76
2021/11/10 20:34:27;;;;;;;47.28;31.38;;;;;;;2.64;85.81;100931.25;10464103;28;20052;-75
2021/11/10 20:39:34;;;;;;;42.38;32.05;;;;;;;2.53;86.25;100925.91;10466942;28;20132;-76
2021/11/10 20:44:39;;;;;;;45.53;32.83;;;;;;;2.55;86.21;100930.25;10465806;28;20048;-75
2021/11/10 20:49:41;;;;;;;46.85;32.13;;;;;;;2.72;85.53;100936.56;10463032;28;20061;-76
2021/11/10 20:54:43;;;;;;;51.50;32.58;;;;;;;2.23;86.23;100941.00;10461137;28;20183;-75
2021/11/10 20:59:44;;;;;;;51.90;33.72;;;;;;;2.41;87.73;100925.72;10461480;28;20045;-75
2021/11/10 21:04:46;;;;;;;44.17;31.63;;;;;;;2.55;86.09;100919.88;10460132;28;20057;-76
2021/11/10 21:09:48;;;;;;;46.60;31.00;;;;;;;2.32;86.60;100929.91;10463809;28;20049;-76
2021/11/10 21:14:51;;;;;;;46.92;33.10;;;;;;;2.22;86.87;100940.13;10461164;28;20119;-75
2021/11/10 21:19:54;;;;;;;42.63;31.13;;;;;;;2.43;86.35;100941.31;10461789;28;20051;-76
2021/11/10 21:24:58;;;;;;;46.35;31.05;;;;;;;2.56;86.06;100935.44;10460599;28;20075;-76
2021/11/10 21:30:01;;;;;;;39.13;28.05;;;;;;;2.31;85.85;100934.22;10459739;28;20041;-75
2021/11/10 21:35:04;;;;;;;42.75;30.00;;;;;;;2.31;87.24;100913.47;10461693;28;20055;-75
2021/11/10 21:40:08;;;;;;;40.50;29.17;;;;;;;2.23;87.41;100909.88;10459292;28;20451;-74
2021/11/10 21:45:11;;;;;;;43.85;30.05;;;;;;;2.27;85.51;100912.53;10460385;28;20045;-75
2021/11/10 21:50:14;;;;;;;46.35;30.05;;;;;;;2.11;87.20;100913.13;10458419;28;20490;-75
2021/11/10 21:55:21;;;;;;;38.07;27.97;;;;;;;2.01;87.40;100903.47;10464343;28;20120;-75
2021/11/10 22:00:28;;;;;;;45.47;27.42;;;;;;;1.88;87.39;100917.06;10462121;28;20037;-75
2021/11/10 22:05:30;;;;;;;27.80;24.05;;;;;;;1.77;87.84;100922.94;10460216;28;20128;-76
2021/11/10 22:10:31;;;;;;;34.28;26.80;;;;;;;1.72;87.94;100921.94;10458578;28;20048;-76
2021/11/10 22:15:34;;;;;;;29.02;24.77;;;;;;;2.05;87.22;100909.56;10459958;28;20053;-75
2021/11/10 22:20:36;;;;;;;28.70;23.80;;;;;;;2.24;85.21;100916.78;10466087;28;20049;-75
2021/11/10 22:25:40;;;;;;;34.00;24.05;;;;;;;1.76;86.44;100912.50;10467424;28;20490;-75
2021/11/10 22:30:42;;;;;;;33.03;23.52;;;;;;;1.67;87.57;100915.81;10466877;28;20041;-75
2021/11/10 22:35:46;;;;;;;33.75;23.40;;;;;;;1.96;86.89;100911.16;10468527;28;20059;-76
2021/11/10 22:40:48;;;;;;;25.88;22.67;;;;;;;1.95;86.24;100909.41;10468528;28;20041;-76
2021/11/10 22:45:50;;;;;;;28.77;21.90;;;;;;;1.78;86.73;100908.25;10468428;28;20056;-76
2021/11/10 22:50:51;;;;;;;37.45;24.52;;;;;;;1.82;86.37;100902.28;10465603;28;20049;-77
2021/11/10 22:55:53;;;;;;;36.85;23.45;;;;;;;1.64;86.41;100901.91;10466734;28;20053;-78
2021/11/10 23:00:55;;;;;;;38.53;24.42;;;;;;;1.56;87.41;100894.03;10464229;28;20120;-76
2021/11/10 23:05:58;;;;;;;44.95;26.23;;;;;;;1.33;87.77;100896.19;10463370;28;20045;-75
2021/11/10 23:10:59;;;;;;;47.42;26.02;;;;;;;1.23;88.06;100896.81;10462312;28;20041;-75
2021/11/10 23:16:01;;;;;;;43.08;25.95;;;;;;;1.33;87.85;100895.28;10463188;28;20079;-75